Time,TemperatureF,DewpointF,PressureIn,WindDirection,WindDirectionDegrees,WindSpeedMPH,WindSpeedGustMPH,Humidity,HourlyPrecipIn,Conditions,Clouds,dailyrainin,SoftwareType,DateUTC
2013-01-31 00:10:00,47.6,47.1,29.33,SSE,150,5.0,5.0,98,0.04,,,0.00,Wunderground v.1.15,2013-01-31 05:10:00,
2013-01-31 00:15:00,47.7,47.2,29.32,SE,135,5.0,5.0,98,0.00,,,0.00,Wunderground v.1.15,2013-01-31 05:15:00,
2013-01-31 00:25:00,47.9,47.4,29.31,South,186,4.0,5.0,98,0.00,,,0.01,Wunderground v.1.15,2013-01-31 05:25:00,
2013-01-31 00:30:00,48.0,47.5,29.30,ESE,104,4.0,5.0,98,0.00,,,0.01,Wunderground v.1.15,2013-01-31 05:30:00,
2013-01-31 00:35:00,47.9,47.4,29.29,ESE,117,3.0,4.0,98,0.04,,,0.02,Wunderground v.1.15,2013-01-31 05:35:00,
2013-01-31 00:45:00,47.7,46.9,29.27,SE,132,4.0,4.0,97,0.04,,,0.02,Wunderground v.1.15,2013-01-31 05:45:00,
2013-01-31 00:50:00,47.5,46.7,29.26,SE,131,2.0,4.0,97,0.00,,,0.02,Wunderground v.1.15,2013-01-31 05:50:00,
2013-01-31 00:55:00,47.3,46.8,29.26,SE,131,2.0,2.0,98,0.00,,,0.02,Wunderground v.1.15,2013-01-31 05:55:00,
2013-01-31 01:00:00,47.1,46.3,29.27,SSE,152,2.0,2.0,97,0.00,,,0.02,Wunderground v.1.15,2013-01-31 06:00:00,
2013-01-31 01:10:00,47.4,46.9,29.27,SSE,156,3.0,3.0,98,0.00,,,0.03,Wunderground v.1.15,2013-01-31 06:10:00,
2013-01-31 01:15:00,47.6,47.1,29.27,SSE,156,3.0,3.0,98,0.08,,,0.04,Wunderground v.1.15,2013-01-31 06:15:00,
2013-01-31 01:20:00,47.5,47.0,29.26,ESE,116,3.0,3.0,98,0.07,,,0.04,Wunderground v.1.15,2013-01-31 06:20:00,
2013-01-31 01:35:00,47.5,47.0,29.24,ESE,122,1.0,1.0,98,0.04,,,0.05,Wunderground v.1.15,2013-01-31 06:35:00,
2013-01-31 01:40:00,47.1,46.3,29.24,ESE,122,1.0,1.0,97,0.00,,,0.06,Wunderground v.1.15,2013-01-31 06:40:00,
2013-01-31 01:51:00,47.5,47.0,29.22,ESE,115,2.0,3.0,98,0.06,,,0.07,Wunderground v.1.15,2013-01-31 06:51:00,
2013-01-31 02:05:00,47.8,47.3,29.20,SE,129,4.0,4.0,98,0.04,,,0.07,Wunderground v.1.15,2013-01-31 07:05:00,
2013-01-31 02:15:00,47.9,47.4,29.18,SSE,148,3.0,6.0,98,0.04,,,0.08,Wunderground v.1.15,2013-01-31 07:15:00,
2013-01-31 02:20:00,48.2,47.7,29.17,SE,144,3.0,6.0,98,0.04,,,0.08,Wunderground v.1.15,2013-01-31 07:20:00,
2013-01-31 02:25:00,48.6,48.1,29.17,SE,134,4.0,8.0,98,0.00,,,0.08,Wunderground v.1.15,2013-01-31 07:25:00,
2013-01-31 02:30:00,48.0,47.5,29.17,ESE,122,5.0,8.0,98,0.00,,,0.08,Wunderground v.1.15,2013-01-31 07:30:00,
2013-01-31 03:25:00,47.4,46.6,29.08,ESE,119,2.0,3.0,97,0.05,,,0.12,Wunderground v.1.15,2013-01-31 08:25:00,
2013-01-31 03:40:00,47.4,46.6,29.07,ESE,121,0.0,1.0,97,0.09,,,0.15,Wunderground v.1.15,2013-01-31 08:40:00,
2013-01-31 03:50:00,47.0,46.2,29.05,ESE,117,1.0,1.0,97,0.09,,,0.17,Wunderground v.1.15,2013-01-31 08:50:00,
2013-01-31 04:05:00,47.2,46.4,29.03,ESE,103,0.0,1.0,97,0.06,,,0.19,Wunderground v.1.15,2013-01-31 09:05:00,
2013-01-31 04:15:00,47.5,46.7,29.00,East,99,1.0,2.0,97,0.07,,,0.20,Wunderground v.1.15,2013-01-31 09:15:00,
2013-01-31 04:40:00,45.2,44.1,28.96,SSW,194,0.0,0.0,96,0.07,,,0.22,Wunderground v.1.15,2013-01-31 09:40:00,
2013-01-31 04:45:00,45.8,45.0,28.96,SSW,194,1.0,1.0,97,0.27,,,0.24,Wunderground v.1.15,2013-01-31 09:45:00,
2013-01-31 04:50:00,46.3,45.8,28.96,SSW,194,1.0,1.0,98,0.26,,,0.26,Wunderground v.1.15,2013-01-31 09:50:00,
2013-01-31 04:55:00,45.3,44.2,28.95,SSW,194,0.0,1.0,96,0.19,,,0.27,Wunderground v.1.15,2013-01-31 09:55:00,
2013-01-31 05:00:00,44.9,43.8,28.94,SSW,194,0.0,0.0,96,0.15,,,0.29,Wunderground v.1.15,2013-01-31 10:00:00,
2013-01-31 05:05:00,44.5,43.4,28.94,SSW,194,0.0,0.0,96,0.13,,,0.30,Wunderground v.1.15,2013-01-31 10:05:00,
2013-01-31 05:10:00,44.0,42.7,28.93,SSW,194,0.0,0.0,95,0.10,,,0.30,Wunderground v.1.15,2013-01-31 10:10:00,
2013-01-31 05:15:00,43.5,42.4,28.93,SSW,194,0.0,0.0,96,0.10,,,0.31,Wunderground v.1.15,2013-01-31 10:15:00,
2013-01-31 05:20:00,43.1,41.8,28.93,SSW,194,0.0,0.0,95,0.12,,,0.32,Wunderground v.1.15,2013-01-31 10:20:00,
2013-01-31 05:25:00,42.6,41.5,28.92,SSW,194,0.0,0.0,96,0.08,,,0.33,Wunderground v.1.15,2013-01-31 10:25:00,
2013-01-31 05:30:00,42.5,41.4,28.92,SSW,194,0.0,0.0,96,0.08,,,0.33,Wunderground v.1.15,2013-01-31 10:30:00,
2013-01-31 05:40:00,42.9,42.1,28.92,East,95,0.0,0.0,97,0.07,,,0.34,Wunderground v.1.15,2013-01-31 10:40:00,
2013-01-31 05:45:00,44.1,43.6,28.92,East,95,0.0,0.0,98,0.04,,,0.34,Wunderground v.1.15,2013-01-31 10:45:00,
2013-01-31 05:55:00,45.9,45.4,28.92,East,95,0.0,1.0,98,0.00,,,0.35,Wunderground v.1.15,2013-01-31 10:55:00,
2013-01-31 06:00:00,46.3,45.8,28.91,East,95,0.0,0.0,98,0.14,,,0.36,Wunderground v.1.15,2013-01-31 11:00:00,
2013-01-31 06:10:00,46.8,46.3,28.89,East,95,0.0,0.0,98,0.11,,,0.38,Wunderground v.1.15,2013-01-31 11:10:00,
2013-01-31 06:16:00,46.4,45.9,28.86,East,92,0.0,1.0,98,0.07,,,0.38,Wunderground v.1.15,2013-01-31 11:16:00,
2013-01-31 06:20:00,45.1,44.0,28.86,SSW,202,1.0,3.0,96,0.04,,,0.38,Wunderground v.1.15,2013-01-31 11:20:00,
2013-01-31 06:25:00,43.8,42.7,28.88,SSW,202,1.0,3.0,96,0.00,,,0.38,Wunderground v.1.15,2013-01-31 11:25:00,
2013-01-31 06:30:00,44.8,44.0,28.91,SSW,202,1.0,1.0,97,0.00,,,0.38,Wunderground v.1.15,2013-01-31 11:30:00,
2013-01-31 06:40:00,43.4,42.3,28.89,SSW,202,0.0,1.0,96,0.00,,,0.39,Wunderground v.1.15,2013-01-31 11:40:00,
2013-01-31 06:45:00,42.7,41.4,28.89,SSW,202,0.0,1.0,95,0.09,,,0.40,Wunderground v.1.15,2013-01-31 11:45:00,
2013-01-31 06:50:00,43.0,42.2,28.86,SSW,202,0.0,0.0,97,0.10,,,0.41,Wunderground v.1.15,2013-01-31 11:50:00,
2013-01-31 06:55:00,42.4,41.3,28.85,SSW,202,1.0,1.0,96,0.07,,,0.41,Wunderground v.1.15,2013-01-31 11:55:00,
2013-01-31 07:00:00,43.6,42.8,28.87,SSW,202,1.0,1.0,97,0.05,,,0.41,Wunderground v.1.15,2013-01-31 12:00:00,
2013-01-31 07:05:00,43.1,42.3,28.85,SSW,202,1.0,1.0,97,0.00,,,0.41,Wunderground v.1.15,2013-01-31 12:05:00,
2013-01-31 07:10:00,43.6,42.8,28.84,ESE,103,1.0,1.0,97,0.00,,,0.41,Wunderground v.1.15,2013-01-31 12:10:00,
2013-01-31 07:15:00,44.4,43.9,28.84,ESE,103,0.0,1.0,98,0.00,,,0.41,Wunderground v.1.15,2013-01-31 12:15:00,
2013-01-31 07:20:00,45.1,44.6,28.82,ESE,103,0.0,0.0,98,0.00,,,0.41,Wunderground v.1.15,2013-01-31 12:20:00,
2013-01-31 07:30:00,46.7,46.2,28.83,SE,136,1.0,1.0,98,0.00,,,0.41,Wunderground v.1.15,2013-01-31 12:30:00,
2013-01-31 07:35:00,47.6,47.1,28.81,WSW,250,1.0,1.0,98,0.00,,,0.41,Wunderground v.1.15,2013-01-31 12:35:00,
2013-01-31 07:40:00,47.2,46.7,28.82,WSW,250,1.0,1.0,98,0.00,,,0.41,Wunderground v.1.15,2013-01-31 12:40:00,
2013-01-31 07:45:00,46.9,46.4,28.82,South,169,1.0,2.0,98,0.00,,,0.41,Wunderground v.1.15,2013-01-31 12:45:00,
2013-01-31 07:55:00,47.4,46.9,28.81,South,169,0.0,1.0,98,0.00,,,0.41,Wunderground v.1.15,2013-01-31 12:55:00,
2013-01-31 08:00:00,46.7,45.6,28.81,South,169,0.0,1.0,96,0.00,,,0.41,Wunderground v.1.15,2013-01-31 13:00:00,
2013-01-31 08:05:00,46.9,46.1,28.80,South,169,0.0,1.0,97,0.00,,,0.41,Wunderground v.1.15,2013-01-31 13:05:00,
2013-01-31 08:10:00,45.8,44.7,28.81,WNW,290,0.0,3.0,96,0.00,,,0.41,Wunderground v.1.15,2013-01-31 13:10:00,
2013-01-31 08:20:00,45.0,44.2,28.83,SW,229,6.0,11.0,97,0.27,,,0.52,Wunderground v.1.15,2013-01-31 13:20:00,
2013-01-31 08:30:00,42.4,41.1,28.85,WSW,242,8.0,14.0,95,0.09,,,0.54,Wunderground v.1.15,2013-01-31 13:30:00,
2013-01-31 08:35:00,41.7,40.1,28.84,WSW,247,11.0,14.0,94,0.09,,,0.54,Wunderground v.1.15,2013-01-31 13:35:00,
2013-01-31 08:41:00,41.3,39.7,28.87,WSW,241,10.0,17.0,94,0.05,,,0.54,Wunderground v.1.15,2013-01-31 13:41:00,
2013-01-31 08:50:00,40.7,38.8,28.87,WSW,248,9.0,17.0,93,0.05,,,0.55,Wunderground v.1.15,2013-01-31 13:50:00,
2013-01-31 08:55:00,40.5,38.6,28.88,SSW,200,9.0,15.0,93,0.08,,,0.56,Wunderground v.1.15,2013-01-31 13:55:00,
2013-01-31 09:01:00,40.2,38.3,28.89,West,265,8.0,8.0,93,0.06,,,0.57,Wunderground v.1.15,2013-01-31 14:01:00,
2013-01-31 09:05:00,40.0,38.1,28.89,WSW,255,5.0,11.0,93,0.06,,,0.57,Wunderground v.1.15,2013-01-31 14:05:00,
2013-01-31 09:10:00,39.6,37.7,28.89,WSW,245,5.0,7.0,93,0.06,,,0.57,Wunderground v.1.15,2013-01-31 14:10:00,
2013-01-31 09:16:00,39.3,37.4,28.90,NNW,342,6.0,7.0,93,0.06,,,0.58,Wunderground v.1.15,2013-01-31 14:16:00,
2013-01-31 09:20:00,39.0,37.1,28.89,WSW,250,4.0,6.0,93,0.06,,,0.58,Wunderground v.1.15,2013-01-31 14:20:00,
2013-01-31 09:25:00,38.6,36.8,28.90,NNW,342,4.0,6.0,93,0.04,,,0.58,Wunderground v.1.15,2013-01-31 14:25:00,
2013-01-31 09:35:00,38.2,36.4,28.91,SE,130,3.0,4.0,93,0.00,,,0.59,Wunderground v.1.15,2013-01-31 14:35:00,
2013-01-31 09:50:00,37.9,36.1,28.92,NNW,341,3.0,3.0,93,0.00,,,0.59,Wunderground v.1.15,2013-01-31 14:50:00,
2013-01-31 10:00:00,37.7,35.9,28.93,ESE,106,2.0,4.0,93,0.00,,,0.59,Wunderground v.1.15,2013-01-31 15:00:00,
2013-01-31 10:05:00,37.5,35.9,28.95,North,355,3.0,4.0,94,0.00,,,0.59,Wunderground v.1.15,2013-01-31 15:05:00,
2013-01-31 10:16:00,37.3,35.5,28.96,SW,223,5.0,5.0,93,0.00,,,0.59,Wunderground v.1.15,2013-01-31 15:16:00,
2013-01-31 10:25:00,37.4,33.9,28.97,SW,232,6.0,10.0,87,0.00,,,0.59,Wunderground v.1.15,2013-01-31 15:25:00,
2013-01-31 10:30:00,37.4,33.9,28.97,SSW,201,7.0,7.0,87,0.00,,,0.59,Wunderground v.1.15,2013-01-31 15:30:00,
2013-01-31 10:35:00,37.3,33.8,28.97,West,280,6.0,7.0,87,0.00,,,0.59,Wunderground v.1.15,2013-01-31 15:35:00,
2013-01-31 10:45:00,37.4,33.9,28.97,West,269,3.0,5.0,87,0.00,,,0.59,Wunderground v.1.15,2013-01-31 15:45:00,
2013-01-31 10:50:00,37.4,35.3,28.98,WSW,241,4.0,5.0,92,0.00,,,0.59,Wunderground v.1.15,2013-01-31 15:50:00,
2013-01-31 10:55:00,37.4,35.3,28.98,SW,219,5.0,5.0,92,0.00,,,0.59,Wunderground v.1.15,2013-01-31 15:55:00,
2013-01-31 11:00:00,37.4,34.2,28.98,WNW,292,4.0,4.0,88,0.00,,,0.59,Wunderground v.1.15,2013-01-31 16:00:00,
2013-01-31 11:05:00,37.2,34.0,28.99,WSW,246,3.0,12.0,88,0.00,,,0.59,Wunderground v.1.15,2013-01-31 16:05:00,
2013-01-31 11:11:00,36.5,33.6,28.99,SW,235,5.0,5.0,89,0.00,,,0.60,Wunderground v.1.15,2013-01-31 16:11:00,
2013-01-31 11:20:00,35.7,33.1,29.00,SSE,163,4.0,5.0,90,0.00,,,0.60,Wunderground v.1.15,2013-01-31 16:20:00,
2013-01-31 11:30:00,35.6,32.7,29.00,WSW,253,6.0,9.0,89,0.04,,,0.61,Wunderground v.1.15,2013-01-31 16:30:00,
2013-01-31 11:35:00,36.2,32.1,29.01,WSW,247,6.0,9.0,85,0.04,,,0.61,Wunderground v.1.15,2013-01-31 16:35:00,
2013-01-31 11:40:00,36.2,32.1,29.02,SSW,198,6.0,6.0,85,0.00,,,0.61,Wunderground v.1.15,2013-01-31 16:40:00,
2013-01-31 11:45:00,36.0,31.3,29.03,WSW,238,5.0,12.0,83,0.00,,,0.61,Wunderground v.1.15,2013-01-31 16:45:00,
2013-01-31 11:50:00,35.5,29.0,29.02,NW,304,8.0,8.0,77,0.00,,,0.61,Wunderground v.1.15,2013-01-31 16:50:00,
2013-01-31 11:55:00,35.3,27.8,29.02,SSW,201,11.0,11.0,74,0.00,,,0.61,Wunderground v.1.15,2013-01-31 16:55:00,
2013-01-31 12:00:00,35.6,28.1,29.02,West,259,11.0,11.0,74,0.00,,,0.61,Wunderground v.1.15,2013-01-31 17:00:00,
2013-01-31 12:05:00,36.1,28.9,29.01,SW,226,10.0,11.0,75,0.00,,,0.61,Wunderground v.1.15,2013-01-31 17:05:00,
2013-01-31 12:10:00,36.3,27.4,29.01,SSW,200,9.0,9.0,70,0.00,,,0.61,Wunderground v.1.15,2013-01-31 17:10:00,
2013-01-31 12:15:00,36.5,28.7,29.01,WSW,251,10.0,10.0,73,0.00,,,0.61,Wunderground v.1.15,2013-01-31 17:15:00,
2013-01-31 12:25:00,36.2,26.3,29.03,South,191,11.0,11.0,67,0.00,,,0.61,Wunderground v.1.15,2013-01-31 17:25:00,
2013-01-31 12:30:00,36.3,26.4,29.03,WSW,254,12.0,25.0,67,0.00,,,0.61,Wunderground v.1.15,2013-01-31 17:30:00,
2013-01-31 12:35:00,36.3,25.3,29.04,SW,235,11.0,25.0,64,0.00,,,0.61,Wunderground v.1.15,2013-01-31 17:35:00,
2013-01-31 12:40:00,36.1,25.1,29.04,WSW,241,12.0,12.0,64,0.00,,,0.61,Wunderground v.1.15,2013-01-31 17:40:00,
2013-01-31 12:55:00,36.4,24.6,29.04,South,187,9.0,9.0,62,0.00,,,0.61,Wunderground v.1.15,2013-01-31 17:55:00,
2013-01-31 13:00:00,36.5,25.1,29.04,South,188,9.0,9.0,63,0.00,,,0.61,Wunderground v.1.15,2013-01-31 18:00:00,
2013-01-31 13:15:00,36.0,23.8,29.05,SSE,165,10.0,13.0,61,0.00,,,0.61,Wunderground v.1.15,2013-01-31 18:15:00,
2013-01-31 13:20:00,35.5,23.8,29.05,WNW,302,10.0,13.0,62,0.00,,,0.61,Wunderground v.1.15,2013-01-31 18:20:00,
2013-01-31 13:25:00,35.0,23.7,29.05,SW,219,10.0,10.0,63,0.00,,,0.61,Wunderground v.1.15,2013-01-31 18:25:00,
2013-01-31 13:30:00,34.8,24.2,29.06,West,277,9.0,10.0,65,0.00,,,0.61,Wunderground v.1.15,2013-01-31 18:30:00,
2013-01-31 13:35:00,35.1,24.1,29.05,NE,45,8.0,8.0,64,0.00,,,0.61,Wunderground v.1.15,2013-01-31 18:35:00,
2013-01-31 13:40:00,35.1,23.8,29.06,South,185,7.0,9.0,63,0.00,,,0.61,Wunderground v.1.15,2013-01-31 18:40:00,
2013-01-31 14:05:00,34.0,22.7,29.10,SSW,202,9.0,9.0,63,0.00,,,0.61,Wunderground v.1.15,2013-01-31 19:05:00,
2013-01-31 14:11:00,33.8,22.1,29.09,SSW,212,11.0,11.0,62,0.00,,,0.61,Wunderground v.1.15,2013-01-31 19:11:00,
2013-01-31 14:20:00,33.4,21.8,29.10,WSW,250,10.0,10.0,62,0.00,,,0.61,Wunderground v.1.15,2013-01-31 19:20:00,
2013-01-31 14:25:00,33.5,22.6,29.10,West,259,6.0,10.0,64,0.00,,,0.61,Wunderground v.1.15,2013-01-31 19:25:00,
2013-01-31 14:40:00,33.4,20.6,29.13,SSW,195,8.0,8.0,59,0.00,,,0.61,Wunderground v.1.15,2013-01-31 19:40:00,
2013-01-31 14:45:00,33.4,20.2,29.13,SSW,203,7.0,8.0,58,0.00,,,0.61,Wunderground v.1.15,2013-01-31 19:45:00,
2013-01-31 14:51:00,33.3,19.3,29.14,SSW,207,8.0,8.0,56,0.00,,,0.61,Wunderground v.1.15,2013-01-31 19:51:00,
2013-01-31 15:00:00,32.5,22.0,29.15,ESE,107,8.0,8.0,65,0.00,,,0.61,Wunderground v.1.15,2013-01-31 20:00:00,
2013-01-31 15:05:00,32.0,22.3,29.15,SW,217,6.0,8.0,67,0.00,,,0.61,Wunderground v.1.15,2013-01-31 20:05:00,
2013-01-31 15:10:00,32.0,20.1,29.14,SSW,196,5.0,10.0,61,0.00,,,0.61,Wunderground v.1.15,2013-01-31 20:10:00,
2013-01-31 16:25:00,29.4,20.5,29.21,South,173,8.0,8.0,69,0.00,,,0.61,Wunderground v.1.15,2013-01-31 21:25:00,
2013-01-31 16:35:00,29.2,19.9,29.21,SSW,205,6.0,6.0,68,0.00,,,0.61,Wunderground v.1.15,2013-01-31 21:35:00,
2013-01-31 16:45:00,29.0,19.4,29.22,WSW,248,7.0,10.0,67,0.00,,,0.61,Wunderground v.1.15,2013-01-31 21:45:00,
2013-01-31 17:20:00,27.9,17.3,29.25,SSE,167,11.0,11.0,64,0.00,,,0.61,Wunderground v.1.15,2013-01-31 22:20:00,
2013-01-31 17:25:00,27.7,16.7,29.25,ESE,111,10.0,11.0,63,0.00,,,0.61,Wunderground v.1.15,2013-01-31 22:25:00,
2013-01-31 17:30:00,27.6,16.6,29.25,SSW,211,11.0,11.0,63,0.00,,,0.61,Wunderground v.1.15,2013-01-31 22:30:00,
2013-01-31 17:35:00,27.5,16.5,29.25,WSW,241,10.0,11.0,63,0.00,,,0.61,Wunderground v.1.15,2013-01-31 22:35:00,
2013-01-31 17:40:00,27.5,15.8,29.26,South,185,11.0,14.0,61,0.00,,,0.61,Wunderground v.1.15,2013-01-31 22:40:00,
2013-01-31 17:45:00,27.6,15.5,29.27,WSW,254,12.0,14.0,60,0.00,,,0.61,Wunderground v.1.15,2013-01-31 22:45:00,
2013-01-31 17:50:00,27.6,15.1,29.27,NW,309,11.0,11.0,59,0.00,,,0.61,Wunderground v.1.15,2013-01-31 22:50:00,
2013-01-31 17:55:00,27.5,15.8,29.27,SSE,148,10.0,11.0,61,0.00,,,0.61,Wunderground v.1.15,2013-01-31 22:55:00,
2013-01-31 18:00:00,27.5,15.4,29.27,SW,216,9.0,13.0,60,0.00,,,0.61,Wunderground v.1.15,2013-01-31 23:00:00,
2013-01-31 18:05:00,27.6,15.1,29.28,SW,216,12.0,13.0,59,0.00,,,0.61,Wunderground v.1.15,2013-01-31 23:05:00,
2013-01-31 18:10:00,27.6,14.7,29.28,SW,236,13.0,20.0,58,0.00,,,0.61,Wunderground v.1.15,2013-01-31 23:10:00,
2013-01-31 18:15:00,27.5,13.8,29.28,South,189,12.0,20.0,56,0.00,,,0.61,Wunderground v.1.15,2013-01-31 23:15:00,
2013-01-31 18:25:00,27.3,12.8,29.28,South,175,9.0,11.0,54,0.00,,,0.61,Wunderground v.1.15,2013-01-31 23:25:00,
2013-01-31 18:30:00,27.3,12.4,29.29,South,188,11.0,18.0,53,0.00,,,0.61,Wunderground v.1.15,2013-01-31 23:30:00,
2013-01-31 18:35:00,27.2,12.7,29.29,South,189,10.0,21.0,54,0.00,,,0.61,Wunderground v.1.15,2013-01-31 23:35:00,
2013-01-31 18:45:00,27.0,13.0,29.29,SSW,209,9.0,14.0,55,0.00,,,0.61,Wunderground v.1.15,2013-01-31 23:45:00,
2013-01-31 18:50:00,26.7,12.7,29.31,WSW,243,11.0,11.0,55,0.00,,,0.61,Wunderground v.1.15,2013-01-31 23:50:00,
2013-01-31 18:55:00,26.6,12.6,29.30,South,170,11.0,22.0,55,0.00,,,0.61,Wunderground v.1.15,2013-01-31 23:55:00,
2013-01-31 19:00:00,26.6,13.8,29.30,West,259,11.0,11.0,58,0.00,,,0.61,Wunderground v.1.15,2013-02-01 00:00:00,
2013-01-31 19:05:00,26.5,11.2,29.30,WSW,251,12.0,12.0,52,0.00,,,0.61,Wunderground v.1.15,2013-02-01 00:05:00,
2013-01-31 19:10:00,26.4,11.1,29.31,SSE,168,12.0,12.0,52,0.00,,,0.61,Wunderground v.1.15,2013-02-01 00:10:00,
2013-01-31 19:15:00,26.3,11.5,29.31,South,169,12.0,14.0,53,0.00,,,0.61,Wunderground v.1.15,2013-02-01 00:15:00,
2013-01-31 19:20:00,26.2,11.4,29.32,WSW,251,11.0,11.0,53,0.00,,,0.61,Wunderground v.1.15,2013-02-01 00:20:00,
2013-01-31 19:26:00,26.1,10.9,29.32,SSW,212,10.0,11.0,52,0.00,,,0.61,Wunderground v.1.15,2013-02-01 00:26:00,
2013-01-31 19:35:00,26.0,11.2,29.33,WSW,238,10.0,15.0,53,0.00,,,0.61,Wunderground v.1.15,2013-02-01 00:35:00,
2013-01-31 19:40:00,25.9,11.9,29.33,SW,223,11.0,15.0,55,0.00,,,0.61,Wunderground v.1.15,2013-02-01 00:40:00,
2013-01-31 19:45:00,25.7,11.7,29.33,South,175,10.0,10.0,55,0.00,,,0.61,Wunderground v.1.15,2013-02-01 00:45:00,
2013-01-31 20:20:00,24.9,12.2,29.35,SSW,202,5.0,6.0,58,0.00,,,0.61,Wunderground v.1.15,2013-02-01 01:20:00,
2013-01-31 20:25:00,24.8,12.1,29.36,SW,225,5.0,8.0,58,0.00,,,0.61,Wunderground v.1.15,2013-02-01 01:25:00,
2013-01-31 20:31:00,24.7,11.6,29.36,SSW,201,6.0,9.0,57,0.00,,,0.61,Wunderground v.1.15,2013-02-01 01:31:00,
2013-01-31 20:40:00,24.4,11.7,29.37,WSW,244,7.0,7.0,58,0.00,,,0.61,Wunderground v.1.15,2013-02-01 01:40:00,
2013-01-31 21:00:00,23.3,11.8,29.37,WNW,298,6.0,11.0,61,0.00,,,0.61,Wunderground v.1.15,2013-02-01 02:00:00,
2013-01-31 21:20:00,23.3,11.1,29.39,West,261,8.0,8.0,59,0.00,,,0.61,Wunderground v.1.15,2013-02-01 02:20:00,
2013-01-31 21:25:00,23.1,11.6,29.40,WNW,297,5.0,8.0,61,0.00,,,0.61,Wunderground v.1.15,2013-02-01 02:25:00,
2013-01-31 21:30:00,22.9,11.8,29.40,West,279,4.0,6.0,62,0.00,,,0.61,Wunderground v.1.15,2013-02-01 02:30:00,
2013-01-31 22:15:00,21.7,6.8,29.41,South,182,7.0,8.0,52,0.00,,,0.61,Wunderground v.1.15,2013-02-01 03:15:00,
2013-01-31 22:25:00,21.5,6.1,29.42,West,263,8.0,11.0,51,0.00,,,0.61,Wunderground v.1.15,2013-02-01 03:25:00,
2013-01-31 22:45:00,21.1,6.6,29.43,West,261,7.0,10.0,53,0.00,,,0.61,Wunderground v.1.15,2013-02-01 03:45:00,
2013-01-31 23:00:00,20.7,7.9,29.44,NW,305,6.0,6.0,57,0.00,,,0.61,Wunderground v.1.15,2013-02-01 04:00:00,
2013-01-31 23:05:00,20.5,8.4,29.44,NW,321,4.0,6.0,59,0.00,,,0.61,Wunderground v.1.15,2013-02-01 04:05:00,
2013-01-31 23:10:00,20.4,8.3,29.44,North,355,4.0,4.0,59,0.00,,,0.61,Wunderground v.1.15,2013-02-01 04:10:00,
2013-01-31 23:15:00,20.3,8.6,29.44,NNW,328,5.0,5.0,60,0.00,,,0.61,Wunderground v.1.15,2013-02-01 04:15:00,
2013-01-31 23:20:00,20.2,8.9,29.44,WSW,247,4.0,4.0,61,0.00,,,0.61,Wunderground v.1.15,2013-02-01 04:20:00,
2013-01-31 23:25:00,20.0,9.1,29.44,West,268,5.0,7.0,62,0.00,,,0.61,Wunderground v.1.15,2013-02-01 04:25:00,
2013-01-31 23:30:00,19.9,9.3,29.44,SW,230,5.0,5.0,63,0.00,,,0.61,Wunderground v.1.15,2013-02-01 04:30:00,
2013-01-31 23:35:00,19.8,9.2,29.44,SSW,211,4.0,7.0,63,0.00,,,0.61,Wunderground v.1.15,2013-02-01 04:35:00,
2013-01-31 23:40:00,19.7,9.5,29.45,WSW,243,4.0,5.0,64,0.00,,,0.61,Wunderground v.1.15,2013-02-01 04:40:00,
2013-01-31 23:46:00,19.5,9.6,29.45,WSW,244,6.0,7.0,65,0.00,,,0.61,Wunderground v.1.15,2013-02-01 04:46:00,